createdAt,value
2023-04-20T00:01:03.480Z,9.37
2023-04-20T00:03:32.311Z,9.34
2023-04-20T00:05:56.015Z,9.31
2023-04-20T00:08:19.853Z,9.28
2023-04-20T00:10:44.432Z,9.25
2023-04-20T00:13:11.348Z,9.24
2023-04-20T00:15:44.487Z,9.22
2023-04-20T00:18:27.300Z,9.21
2023-04-20T00:21:11.042Z,9.19
2023-04-20T00:23:38.190Z,9.16
2023-04-20T00:26:21.959Z,9.15
2023-04-20T00:28:56.790Z,9.12
2023-04-20T00:31:23.248Z,9.09
2023-04-20T00:34:07.349Z,9.09
2023-04-20T00:36:51.302Z,9.09
2023-04-20T00:39:16.923Z,9.09
2023-04-20T00:42:05.869Z,9.09
2023-04-20T00:44:33.319Z,9.12
2023-04-20T00:47:17.273Z,9.13
2023-04-20T00:49:41.128Z,9.13
2023-04-20T00:52:05.914Z,9.14
2023-04-20T00:54:32.777Z,9.15
2023-04-20T00:57:23.299Z,9.16
2023-04-20T00:59:56.928Z,9.16
2023-04-20T01:02:41.160Z,9.16
2023-04-20T01:05:08.717Z,9.16
2023-04-20T01:07:32.303Z,9.16
2023-04-20T01:09:58.430Z,9.16
2023-04-20T01:12:21.803Z,9.16
2023-04-20T01:14:48.391Z,9.19
2023-04-20T01:17:14.403Z,9.20
2023-04-20T01:19:44.090Z,9.22
2023-04-20T01:22:07.672Z,9.24
2023-04-20T01:24:34.141Z,9.25
2023-04-20T01:26:57.890Z,9.26
2023-04-20T01:29:21.530Z,9.27
2023-04-20T01:31:47.694Z,9.28
2023-04-20T01:34:11.300Z,9.28
2023-04-20T01:36:55.887Z,9.29
2023-04-20T01:39:22.064Z,9.29
2023-04-20T01:41:47.888Z,9.31
2023-04-20T01:44:14.580Z,9.33
2023-04-20T01:46:39.146Z,9.33
2023-04-20T01:49:16.221Z,9.35
2023-04-20T01:51:40.069Z,9.34
2023-04-20T01:54:03.839Z,9.33
2023-04-20T01:56:28.091Z,9.31
2023-04-20T01:58:54.722Z,9.31
2023-04-20T02:01:29.559Z,9.32
2023-04-20T02:03:53.455Z,9.31
2023-04-20T02:06:29.358Z,9.32
2023-04-20T02:08:53.062Z,9.31
2023-04-20T02:11:23.777Z,9.31
2023-04-20T02:14:07.924Z,9.34
2023-04-20T02:16:36.020Z,9.34
2023-04-20T02:19:02.858Z,9.35
2023-04-20T02:21:27.476Z,9.36
2023-04-20T02:23:51.111Z,9.36
2023-04-20T02:26:16.606Z,9.37
2023-04-20T02:28:49.518Z,9.37
2023-04-20T02:31:13.433Z,9.37
2023-04-20T02:33:41.557Z,9.38
2023-04-20T02:36:06.501Z,9.36
2023-04-20T02:38:29.862Z,9.34
2023-04-20T02:40:53.338Z,9.36
2023-04-20T02:43:17.213Z,9.36
2023-04-20T02:45:40.814Z,9.35
2023-04-20T02:48:05.764Z,9.36
2023-04-20T02:50:49.794Z,9.36
2023-04-20T02:53:16.726Z,9.36
2023-04-20T02:55:49.858Z,9.34
2023-04-20T02:58:26.059Z,9.33
2023-04-20T03:01:21.776Z,9.33
2023-04-20T03:03:47.378Z,9.32
2023-04-20T03:06:11.463Z,9.31
2023-04-20T03:08:48.652Z,9.30
2023-04-20T03:11:41.335Z,9.29
2023-04-20T03:14:10.094Z,9.29
2023-04-20T03:16:33.899Z,9.28
2023-04-20T03:18:57.532Z,9.26
2023-04-20T03:21:21.181Z,9.25
2023-04-20T03:23:44.669Z,9.25
2023-04-20T03:26:20.724Z,9.27
2023-04-20T03:29:03.197Z,9.27
2023-04-20T03:31:29.775Z,9.27
2023-04-20T03:33:56.024Z,9.27
2023-04-20T03:36:40.111Z,9.29
2023-04-20T03:39:06.769Z,9.29
2023-04-20T03:41:50.739Z,9.29
2023-04-20T03:44:24.357Z,9.30
2023-04-20T03:46:50.413Z,9.29
2023-04-20T03:49:34.999Z,9.29
2023-04-20T03:52:18.883Z,9.27
2023-04-20T03:54:52.036Z,9.25
2023-04-20T03:57:16.660Z,9.22
2023-04-20T04:00:00.997Z,9.20
2023-04-20T04:02:28.429Z,9.19
2023-04-20T04:04:55.576Z,9.18
2023-04-20T04:07:23.777Z,9.16
2023-04-20T04:09:50.518Z,9.16
2023-04-20T04:12:31.250Z,9.17
2023-04-20T04:15:08.439Z,9.18
2023-04-20T04:17:55.042Z,9.16
2023-04-20T04:20:22.245Z,9.15
2023-04-20T04:22:46.398Z,9.14
2023-04-20T04:25:24.498Z,9.13
2023-04-20T04:27:48.179Z,9.13
2023-04-20T04:30:14.215Z,9.15
2023-04-20T04:32:41.282Z,9.15
2023-04-20T04:35:06.286Z,9.16
2023-04-20T04:37:30.335Z,9.19
2023-04-20T04:40:14.690Z,9.24
2023-04-20T04:42:38.820Z,9.29
2023-04-20T04:45:04.039Z,9.32
2023-04-20T04:47:29.935Z,9.37
2023-04-20T04:49:55.833Z,9.45
2023-04-20T04:52:19.511Z,9.51
2023-04-20T04:54:43.079Z,9.58
2023-04-20T04:57:06.616Z,9.64
2023-04-20T04:59:30.081Z,9.72
2023-04-20T05:01:56.253Z,9.79
2023-04-20T05:04:20.052Z,9.84
2023-04-20T05:07:04.081Z,9.89
2023-04-20T05:09:32.659Z,9.97
2023-04-20T05:11:56.891Z,10.04
2023-04-20T05:14:20.550Z,10.14
2023-04-20T05:16:46.528Z,10.23
2023-04-20T05:19:12.226Z,10.33
2023-04-20T05:21:37.536Z,10.42
2023-04-20T05:24:03.844Z,10.50
2023-04-20T05:26:27.460Z,10.58
2023-04-20T05:28:53.707Z,10.64
2023-04-20T05:31:26.065Z,10.72
2023-04-20T05:33:49.873Z,10.81
2023-04-20T05:36:22.244Z,10.93
2023-04-20T05:38:59.142Z,11.14
2023-04-20T05:41:26.830Z,11.77
2023-04-20T05:43:50.456Z,13.12
2023-04-20T05:46:15.984Z,14.38
2023-04-20T05:48:39.546Z,15.32
2023-04-20T05:51:03.055Z,16.37
2023-04-20T05:53:26.660Z,16.93
2023-04-20T05:55:50.184Z,17.22
2023-04-20T05:58:13.628Z,17.38
2023-04-20T06:00:37.165Z,17.21
2023-04-20T06:03:01.125Z,17.16
2023-04-20T06:05:24.817Z,17.87
2023-04-20T06:07:48.691Z,18.63
2023-04-20T06:10:12.938Z,19.16
2023-04-20T06:12:36.443Z,19.28
2023-04-20T06:14:59.844Z,19.54
2023-04-20T06:17:23.526Z,20.58
2023-04-20T06:19:47.222Z,21.78
2023-04-20T06:22:16.180Z,22.79
2023-04-20T06:24:41.654Z,24.52
2023-04-20T06:27:05.763Z,26.19
2023-04-20T06:29:29.206Z,27.64
2023-04-20T06:31:52.722Z,28.88
2023-04-20T06:34:16.110Z,29.89
2023-04-20T06:36:43.180Z,30.78
2023-04-20T06:39:07.090Z,31.69
2023-04-20T06:41:30.497Z,31.91
2023-04-20T06:44:02.156Z,32.31
2023-04-20T06:46:25.763Z,32.99
2023-04-20T06:48:49.306Z,33.72
2023-04-20T06:51:13.792Z,34.45
2023-04-20T06:53:37.608Z,35.05
2023-04-20T06:56:01.417Z,35.57
2023-04-20T06:58:25.030Z,36.01
2023-04-20T07:00:48.975Z,36.47
2023-04-20T07:03:12.556Z,36.92
2023-04-20T07:05:37.500Z,37.39
2023-04-20T07:08:01.814Z,37.73
2023-04-20T07:10:25.632Z,37.90
2023-04-20T07:12:48.960Z,38.10
2023-04-20T07:15:13.262Z,38.34
2023-04-20T07:17:36.642Z,38.41
2023-04-20T07:20:06.644Z,38.39
2023-04-20T07:22:30.297Z,38.29
2023-04-20T07:24:53.605Z,38.32
2023-04-20T07:27:17.524Z,38.56
2023-04-20T07:29:40.991Z,38.72
2023-04-20T07:32:05.091Z,38.50
2023-04-20T07:34:28.602Z,38.33
2023-04-20T07:36:52.245Z,38.12
2023-04-20T07:39:16.112Z,37.76
2023-04-20T07:41:39.841Z,37.17
2023-04-20T07:44:05.673Z,36.78
2023-04-20T07:46:29.073Z,36.80
2023-04-20T07:48:52.547Z,37.11
2023-04-20T07:51:16.156Z,37.51
2023-04-20T07:53:39.616Z,37.77
2023-04-20T07:56:03.099Z,37.99
2023-04-20T07:58:26.612Z,38.22
2023-04-20T08:00:49.941Z,38.29
2023-04-20T08:03:13.514Z,38.39
2023-04-20T08:05:40.243Z,38.56
2023-04-20T08:08:03.842Z,38.63
2023-04-20T08:10:27.181Z,38.55
2023-04-20T08:12:52.928Z,38.36
2023-04-20T08:15:16.490Z,38.02
2023-04-20T08:17:39.996Z,37.77
2023-04-20T08:20:05.385Z,37.67
2023-04-20T08:22:29.645Z,37.55
2023-04-20T08:24:53.053Z,37.48
2023-04-20T08:27:16.677Z,37.43
2023-04-20T08:29:40.514Z,37.41
2023-04-20T08:32:08.284Z,37.39
2023-04-20T08:34:32.048Z,37.34
2023-04-20T08:36:55.455Z,37.21
2023-04-20T08:39:23.446Z,36.92
2023-04-20T08:41:47.696Z,36.61
2023-04-20T08:44:11.266Z,36.47
2023-04-20T08:46:35.471Z,36.23
2023-04-20T08:49:01.526Z,36.00
2023-04-20T08:51:25.072Z,35.96
2023-04-20T08:53:48.410Z,35.76
2023-04-20T08:56:12.015Z,35.54
2023-04-20T08:58:37.863Z,35.57
2023-04-20T09:01:01.650Z,35.59
2023-04-20T09:03:33.885Z,35.63
2023-04-20T09:05:57.454Z,35.61
2023-04-20T09:08:20.906Z,35.55
2023-04-20T09:10:45.139Z,35.41
2023-04-20T09:13:08.900Z,34.85
2023-04-20T09:15:32.762Z,33.99
2023-04-20T09:17:57.314Z,33.53
2023-04-20T09:20:29.329Z,32.96
2023-04-20T09:22:53.765Z,32.37
2023-04-20T09:25:18.394Z,31.43
2023-04-20T09:27:42.022Z,30.65
2023-04-20T09:30:08.678Z,30.60
2023-04-20T09:32:33.080Z,30.15
2023-04-20T09:34:56.777Z,29.32
2023-04-20T09:37:20.234Z,28.66
2023-04-20T09:39:45.142Z,28.12
2023-04-20T09:42:12.987Z,28.02
2023-04-20T09:44:38.708Z,27.97
2023-04-20T09:47:04.123Z,28.14
2023-04-20T09:49:27.799Z,28.57
2023-04-20T09:51:51.897Z,28.65
2023-04-20T09:54:16.559Z,27.90
2023-04-20T09:56:41.091Z,27.71
2023-04-20T09:59:05.016Z,27.88
2023-04-20T10:01:33.012Z,27.67
2023-04-20T10:03:58.684Z,27.90
2023-04-20T10:06:24.151Z,27.90
2023-04-20T10:08:49.863Z,27.86
2023-04-20T10:11:25.280Z,28.00
2023-04-20T10:13:49.600Z,27.85
2023-04-20T10:16:19.569Z,27.18
2023-04-20T10:18:43.169Z,26.37
2023-04-20T10:21:08.899Z,26.05
2023-04-20T10:23:32.639Z,26.06
2023-04-20T10:25:57.561Z,25.92
2023-04-20T10:28:21.302Z,25.46
2023-04-20T10:30:52.972Z,24.84
2023-04-20T10:33:17.551Z,24.11
2023-04-20T10:35:47.022Z,23.59
2023-04-20T10:38:11.607Z,23.09
2023-04-20T10:40:35.721Z,23.16
2023-04-20T10:43:01.444Z,23.52
2023-04-20T10:45:35.848Z,23.98
2023-04-20T10:48:06.017Z,23.99
2023-04-20T10:50:29.502Z,23.62
2023-04-20T10:52:53.146Z,23.17
2023-04-20T10:55:21.835Z,23.04
2023-04-20T10:57:46.184Z,22.78
2023-04-20T11:00:18.426Z,22.62
2023-04-20T11:02:51.006Z,22.57
2023-04-20T11:05:15.776Z,22.76
2023-04-20T11:07:54.570Z,22.99
2023-04-20T11:10:18.712Z,23.20
2023-04-20T11:12:42.155Z,23.39
2023-04-20T11:15:09.353Z,23.60
2023-04-20T11:17:33.999Z,23.89
2023-04-20T11:20:10.282Z,23.89
2023-04-20T11:22:34.127Z,23.72
2023-04-20T11:25:05.226Z,23.37
2023-04-20T11:27:28.676Z,22.99
2023-04-20T11:29:59.214Z,22.51
2023-04-20T11:32:23.211Z,22.11
2023-04-20T11:34:50.265Z,21.85
2023-04-20T11:37:17.281Z,21.64
2023-04-20T11:39:41.263Z,21.56
2023-04-20T11:42:06.019Z,21.42
2023-04-20T11:44:29.988Z,21.29
2023-04-20T11:46:56.570Z,21.14
2023-04-20T11:49:21.302Z,21.02
2023-04-20T11:51:45.788Z,20.91
2023-04-20T11:54:09.446Z,20.84
2023-04-20T11:56:33.037Z,20.96
2023-04-20T11:58:57.426Z,21.18
2023-04-20T12:01:20.934Z,21.31
2023-04-20T12:03:47.101Z,21.32
2023-04-20T12:06:12.218Z,21.25
2023-04-20T12:08:36.517Z,21.16
2023-04-20T12:11:03.032Z,21.13
2023-04-20T12:13:26.828Z,21.33
2023-04-20T12:15:50.373Z,21.55
2023-04-20T12:18:14.032Z,21.83
2023-04-20T12:20:37.696Z,22.10
2023-04-20T12:23:01.853Z,22.13
2023-04-20T12:25:25.258Z,22.11
2023-04-20T12:27:50.006Z,22.03
2023-04-20T12:30:17.467Z,21.93
2023-04-20T12:32:41.034Z,21.77
2023-04-20T12:35:05.612Z,21.63
2023-04-20T12:37:29.064Z,21.56
2023-04-20T12:39:52.737Z,21.58
2023-04-20T12:42:16.430Z,21.71
2023-04-20T12:44:40.265Z,21.90
2023-04-20T12:47:03.771Z,22.07
2023-04-20T12:49:27.825Z,22.21
2023-04-20T12:51:51.350Z,22.35
2023-04-20T12:54:14.782Z,22.52
2023-04-20T12:56:38.409Z,22.71
2023-04-20T12:59:02.338Z,22.87
2023-04-20T13:01:26.185Z,22.77
2023-04-20T13:03:51.747Z,22.50
2023-04-20T13:06:18.252Z,22.25
2023-04-20T13:08:41.884Z,22.03
2023-04-20T13:11:06.300Z,21.86
2023-04-20T13:13:29.730Z,21.82
2023-04-20T13:15:54.668Z,21.88
2023-04-20T13:18:19.543Z,21.92
2023-04-20T13:20:42.901Z,21.86
2023-04-20T13:23:06.443Z,21.81
2023-04-20T13:25:32.849Z,21.76
2023-04-20T13:27:56.607Z,21.62
2023-04-20T13:30:21.838Z,21.52
2023-04-20T13:32:46.649Z,21.38
2023-04-20T13:35:11.772Z,21.22
2023-04-20T13:37:36.240Z,21.04
2023-04-20T13:40:00.977Z,20.95
2023-04-20T13:42:24.838Z,20.88
2023-04-20T13:44:48.368Z,20.80
2023-04-20T13:47:11.960Z,20.79
2023-04-20T13:49:35.430Z,20.79
2023-04-20T13:51:58.894Z,20.86
2023-04-20T13:54:22.836Z,20.97
2023-04-20T13:56:46.380Z,21.15
2023-04-20T13:59:09.795Z,21.32
2023-04-20T14:01:33.612Z,21.48
2023-04-20T14:03:57.219Z,21.59
2023-04-20T14:06:21.408Z,21.62
2023-04-20T14:08:45.400Z,21.60
2023-04-20T14:11:08.926Z,21.54
2023-04-20T14:13:32.484Z,21.49
2023-04-20T14:15:56.840Z,21.45
2023-04-20T14:18:20.349Z,21.41
2023-04-20T14:20:43.805Z,21.30
2023-04-20T14:23:09.428Z,21.15
2023-04-20T14:25:33.267Z,21.00
2023-04-20T14:27:56.669Z,20.86
2023-04-20T14:30:20.450Z,20.75
2023-04-20T14:32:54.048Z,20.73
2023-04-20T14:35:17.758Z,20.74
2023-04-20T14:37:42.850Z,20.80
2023-04-20T14:40:08.596Z,20.87
2023-04-20T14:42:33.863Z,20.93
2023-04-20T14:44:57.529Z,20.97
2023-04-20T14:47:21.991Z,20.99
2023-04-20T14:49:45.424Z,21.00
2023-04-20T14:52:09.039Z,20.96
2023-04-20T14:54:32.454Z,20.88
2023-04-20T14:56:58.710Z,20.75
2023-04-20T14:59:23.974Z,20.63
2023-04-20T15:02:01.272Z,20.57
2023-04-20T15:04:27.082Z,20.51
2023-04-20T15:06:50.856Z,20.44
2023-04-20T15:09:14.772Z,20.35
2023-04-20T15:11:38.277Z,20.30
2023-04-20T15:14:02.117Z,20.24
2023-04-20T15:16:25.787Z,20.18
2023-04-20T15:18:52.199Z,20.13
2023-04-20T15:21:15.638Z,20.13
2023-04-20T15:23:39.023Z,20.16
2023-04-20T15:26:02.999Z,20.15
2023-04-20T15:28:26.489Z,20.16
2023-04-20T15:30:49.901Z,20.11
2023-04-20T15:33:13.557Z,20.03
2023-04-20T15:35:36.966Z,19.96
2023-04-20T15:38:00.732Z,19.87
2023-04-20T15:40:26.559Z,19.78
2023-04-20T15:42:55.023Z,19.70
2023-04-20T15:45:19.464Z,19.63
2023-04-20T15:47:43.195Z,19.57
2023-04-20T15:50:08.474Z,19.51
2023-04-20T15:52:32.266Z,19.48
2023-04-20T15:54:56.103Z,19.46
2023-04-20T15:57:19.504Z,19.44
2023-04-20T15:59:43.098Z,19.44
2023-04-20T16:02:16.081Z,19.44
2023-04-20T16:04:39.985Z,19.45
2023-04-20T16:07:03.780Z,19.46
2023-04-20T16:09:27.471Z,19.47
2023-04-20T16:11:50.924Z,19.48
2023-04-20T16:14:14.231Z,19.47
2023-04-20T16:16:37.995Z,19.44
2023-04-20T16:19:01.419Z,19.40
2023-04-20T16:21:25.204Z,19.32
2023-04-20T16:23:53.037Z,19.21
2023-04-20T16:26:16.928Z,19.14
2023-04-20T16:28:40.932Z,19.06
2023-04-20T16:31:05.216Z,18.98
2023-04-20T16:33:31.456Z,18.88
2023-04-20T16:35:54.908Z,18.77
2023-04-20T16:38:26.130Z,18.67
2023-04-20T16:40:50.264Z,18.55
2023-04-20T16:43:13.808Z,18.42
2023-04-20T16:45:45.121Z,18.34
2023-04-20T16:48:29.089Z,18.25
2023-04-20T16:50:53.249Z,18.16
2023-04-20T16:53:16.922Z,18.08
2023-04-20T16:55:40.394Z,18.01
2023-04-20T16:58:06.494Z,17.93
2023-04-20T17:00:31.374Z,17.86
2023-04-20T17:03:00.761Z,17.79
2023-04-20T17:05:25.287Z,17.72
2023-04-20T17:07:48.789Z,17.65
2023-04-20T17:10:12.712Z,17.54
2023-04-20T17:12:36.394Z,17.47
2023-04-20T17:15:00.373Z,17.40
2023-04-20T17:17:25.418Z,17.34
2023-04-20T17:19:49.466Z,17.27
2023-04-20T17:22:16.099Z,17.19
2023-04-20T17:24:48.260Z,17.13
2023-04-20T17:27:22.456Z,17.07
2023-04-20T17:29:47.069Z,17.00
2023-04-20T17:32:12.929Z,16.92
2023-04-20T17:34:37.012Z,16.83
2023-04-20T17:37:00.906Z,16.75
2023-04-20T17:39:25.290Z,16.66
2023-04-20T17:41:48.873Z,16.60
2023-04-20T17:44:12.672Z,16.52
2023-04-20T17:46:36.214Z,16.45
2023-04-20T17:49:00.274Z,16.38
2023-04-20T17:51:23.872Z,16.29
2023-04-20T17:53:47.312Z,16.23
2023-04-20T17:56:11.256Z,16.17
2023-04-20T17:58:38.055Z,16.12
2023-04-20T18:01:10.051Z,16.06
2023-04-20T18:03:34.037Z,15.99
2023-04-20T18:05:57.501Z,15.92
2023-04-20T18:08:23.603Z,15.85
2023-04-20T18:10:56.776Z,15.80
2023-04-20T18:13:40.823Z,15.74
2023-04-20T18:16:23.474Z,15.66
2023-04-20T18:18:47.212Z,15.62
2023-04-20T18:21:13.480Z,15.57
2023-04-20T18:23:48.923Z,15.52
2023-04-20T18:26:17.209Z,15.47
2023-04-20T18:28:43.588Z,15.43
2023-04-20T18:31:07.311Z,15.38
2023-04-20T18:33:30.954Z,15.33
2023-04-20T18:35:57.466Z,15.29
2023-04-20T18:38:21.150Z,15.25
2023-04-20T18:40:45.700Z,15.20
2023-04-20T18:43:09.209Z,15.16
2023-04-20T18:45:35.881Z,15.11
2023-04-20T18:48:19.438Z,15.07
2023-04-20T18:50:43.772Z,15.03
2023-04-20T18:53:08.136Z,14.99
2023-04-20T18:55:39.830Z,14.94
2023-04-20T18:58:12.570Z,14.89
2023-04-20T19:00:39.224Z,14.84
2023-04-20T19:03:26.809Z,14.79
2023-04-20T19:06:10.986Z,14.73
2023-04-20T19:08:55.393Z,14.67
2023-04-20T19:11:39.490Z,14.62
2023-04-20T19:14:23.767Z,14.56
2023-04-20T19:17:08.219Z,14.52
2023-04-20T19:19:41.921Z,14.48
2023-04-20T19:22:05.516Z,14.44
2023-04-20T19:24:29.423Z,14.40
2023-04-20T19:26:53.620Z,14.37
2023-04-20T19:29:36.427Z,14.34
2023-04-20T19:32:00.229Z,14.31
2023-04-20T19:34:44.150Z,14.27
2023-04-20T19:37:07.904Z,14.24
2023-04-20T19:39:38.777Z,14.20
2023-04-20T19:42:02.310Z,14.16
2023-04-20T19:44:28.653Z,14.11
2023-04-20T19:47:12.617Z,14.07
2023-04-20T19:49:36.862Z,14.01
2023-04-20T19:52:00.542Z,13.98
2023-04-20T19:54:24.170Z,13.94
2023-04-20T19:56:58.641Z,13.90
2023-04-20T19:59:42.697Z,13.87
2023-04-20T20:02:09.444Z,13.84
2023-04-20T20:04:36.766Z,13.80
2023-04-20T20:07:21.137Z,13.76
2023-04-20T20:09:47.887Z,13.72
2023-04-20T20:12:32.228Z,13.66
2023-04-20T20:15:05.752Z,13.63
2023-04-20T20:17:54.959Z,13.58
2023-04-20T20:20:39.560Z,13.54
2023-04-20T20:23:04.194Z,13.50
2023-04-20T20:25:30.679Z,13.45
2023-04-20T20:27:54.159Z,13.41
2023-04-20T20:30:18.130Z,13.37
2023-04-20T20:32:42.138Z,13.32
2023-04-20T20:35:10.877Z,13.28
2023-04-20T20:37:35.540Z,13.24
2023-04-20T20:39:59.479Z,13.19
2023-04-20T20:42:22.879Z,13.14
2023-04-20T20:45:11.801Z,13.11
2023-04-20T20:47:55.797Z,13.06
2023-04-20T20:50:32.187Z,13.01
2023-04-20T20:53:16.956Z,12.97
2023-04-20T20:55:43.713Z,12.93
2023-04-20T20:58:17.322Z,12.90
2023-04-20T21:01:01.915Z,12.86
2023-04-20T21:03:46.520Z,12.83
2023-04-20T21:06:32.160Z,12.80
2023-04-20T21:09:17.089Z,12.76
2023-04-20T21:11:56.225Z,12.73
2023-04-20T21:14:29.083Z,12.68
2023-04-20T21:17:13.490Z,12.64
2023-04-20T21:19:57.500Z,12.60
2023-04-20T21:22:42.178Z,12.58
2023-04-20T21:25:07.804Z,12.55
2023-04-20T21:27:52.165Z,12.51
2023-04-20T21:30:35.958Z,12.47
2023-04-20T21:33:08.729Z,12.46
2023-04-20T21:35:52.576Z,12.42
2023-04-20T21:38:36.927Z,12.39
2023-04-20T21:41:00.503Z,12.38
2023-04-20T21:43:24.281Z,12.36
2023-04-20T21:45:51.039Z,12.33
2023-04-20T21:48:15.060Z,12.31
2023-04-20T21:50:38.852Z,12.29
2023-04-20T21:53:02.974Z,12.27
2023-04-20T21:55:26.502Z,12.24
2023-04-20T21:58:10.461Z,12.20
2023-04-20T22:00:54.395Z,12.17
2023-04-20T22:03:38.893Z,12.14
2023-04-20T22:06:23.064Z,12.11
2023-04-20T22:09:07.453Z,12.08
2023-04-20T22:11:35.912Z,12.05
2023-04-20T22:14:10.280Z,12.01
2023-04-20T22:16:37.186Z,11.97
2023-04-20T22:19:21.893Z,11.94
2023-04-20T22:22:05.827Z,11.91
2023-04-20T22:24:39.952Z,11.88
2023-04-20T22:27:24.054Z,11.85
2023-04-20T22:29:57.057Z,11.82
2023-04-20T22:32:24.049Z,11.79
2023-04-20T22:35:09.621Z,11.75
2023-04-20T22:37:33.326Z,11.72
2023-04-20T22:40:17.354Z,11.67
2023-04-20T22:43:01.117Z,11.63
2023-04-20T22:45:45.452Z,11.57
2023-04-20T22:48:29.652Z,11.53
2023-04-20T22:51:16.748Z,11.48
2023-04-20T22:54:01.869Z,11.44
2023-04-20T22:56:45.879Z,11.40
2023-04-20T22:59:29.618Z,11.36
2023-04-20T23:02:14.280Z,11.32
2023-04-20T23:04:56.996Z,11.28
2023-04-20T23:07:41.224Z,11.23
2023-04-20T23:10:15.997Z,11.19
2023-04-20T23:12:59.939Z,11.16
2023-04-20T23:15:43.896Z,11.12
2023-04-20T23:18:18.608Z,11.10
2023-04-20T23:21:02.309Z,11.05
2023-04-20T23:23:40.421Z,11.02
2023-04-20T23:26:24.914Z,10.98
2023-04-20T23:29:08.972Z,10.95
2023-04-20T23:31:52.744Z,10.93
2023-04-20T23:34:37.327Z,10.90
2023-04-20T23:37:21.131Z,10.86
2023-04-20T23:39:55.479Z,10.83
2023-04-20T23:42:30.415Z,10.79
2023-04-20T23:45:14.470Z,10.74
2023-04-20T23:47:40.591Z,10.70
2023-04-20T23:50:13.693Z,10.67
2023-04-20T23:52:57.667Z,10.63
2023-04-20T23:55:41.564Z,10.60
2023-04-20T23:58:11.273Z,10.57
